Terminal Aerodrome Forecast
Issued by NWS

Home | Current Version | Previous Version | Text Only | Print | Product List | Glossary On
Versions: 1 2 3 4 5 6 7 8 9 10 11 12 13 14 15 16 17 18 19 20 21 22 23 24 25 26 27 28 29 30 31 32 33 34 35 36 37 38 39 40 41 42 43 44 45 46 47 48
000
FTAK31 PANC 181144 AAA
TAFASN
TAF AMD
PASN 181144Z 1812/1912 01028G37KT P6SM OVC006
     FM181500 35033G44KT P6SM BKN015
     FM190300 33035G45KT P6SM BKN020
     FM190900 32030G40KT P6SM FEW020 BKN050=

USA.gov is the U.S. government's official web portal to all federal, state and local government web resources and services.